KSFM

Sanford Seacoast Regional Airport

Sanford, Maine, USA
METAR KSFM 160056Z AUTO 00000KT 10SM CLR 01/M03 A3024 RMK AO2 SLP248 T00061028 FZRANO PNO $
Observed Flight Rules
Dec-16 @ 00:56 UTC (19 minutes ago) Visual Flight Rules
Visibility Clouds
10 miles
  • Clear skies
Temperatures Readings
Current 1°C / 34°F
Dewpoint -3°C / 27°F
Humidity 75%
Altimeter 30.24" Hg
Pressure 1024.8 hPa
Elevation 74
METAR KSFM 160056Z AUTO 00000KT 10SM CLR 01/M03 A3024 RMK AO2 SLP248 T00061028 FZRANO PNO $
Observed Flight Rules
Dec-16 @ 00:56 UTC
(19 minutes ago)
VFR
Clouds
  • Clear skies
Temperature Dewpoint
1°C / 34°F -3°C / 27°F
Humidity Altimeter Pressure
75% 30.24" Hg 1024.8 hPa